Time;durP1;ratioP1;P1;durP2;ratioP2;P2;SDS_P1;SDS_P2;PMS_P1;PMS_P2;Temp;Humidity;BMP_temperature;BMP_pressure;BME280_temperature;BME280_humidity;BME280_pressure;Samples;Min_cycle;Max_cycle;Signal;HPM_P1;HPM_P2
2022/07/10 00:04:14;;;;;;;6.03;2.80;;;15.60;99.90;;;;;;20920527;28;20029;-85
2022/07/10 00:14:15;;;;;;;8.07;2.40;;;15.50;99.90;;;;;;20904098;28;20033;-83
2022/07/10 00:24:16;;;;;;;5.43;2.47;;;15.50;99.90;;;;;;20903365;28;20044;-85
2022/07/10 00:34:17;;;;;;;5.63;2.57;;;15.50;99.90;;;;;;20902356;28;20041;-81
2022/07/10 00:44:17;;;;;;;5.50;2.30;;;15.30;99.90;;;;;;20918629;28;20029;-84
2022/07/10 00:54:18;;;;;;;3.43;2.40;;;15.20;99.90;;;;;;20902023;28;20391;-82
2022/07/10 01:04:20;;;;;;;5.23;2.50;;;15.10;99.90;;;;;;20906425;28;20124;-83
2022/07/10 01:14:21;;;;;;;3.03;2.33;;;14.80;99.90;;;;;;20933486;28;20056;-83
2022/07/10 01:24:22;;;;;;;;;;;14.70;99.90;;;;;;20931360;28;20311;-85
2022/07/10 01:34:23;;;;;;;4.55;2.65;;;14.50;99.90;;;;;;20930356;28;19913;-81
2022/07/10 01:44:24;;;;;;;5.37;2.13;;;14.40;99.90;;;;;;20923686;28;20037;-82
2022/07/10 01:54:25;;;;;;;7.53;2.53;;;14.20;99.90;;;;;;20902641;28;20314;-82
2022/07/10 02:04:41;;;;;;;3.97;2.30;;;14.40;99.90;;;;;;20903146;28;20120;-83
2022/07/10 02:14:42;;;;;;;3.13;2.47;;;14.50;99.90;;;;;;20917738;28;20082;-82
2022/07/10 02:24:42;;;;;;;4.60;2.80;;;13.90;99.90;;;;;;20921402;28;20065;-83
2022/07/10 02:34:44;;;;;;;5.23;2.50;;;13.90;99.90;;;;;;20901270;28;20029;-83
2022/07/10 02:44:45;;;;;;;5.57;2.90;;;13.40;99.90;;;;;;20916116;28;20021;-82
2022/07/10 02:54:46;;;;;;;6.77;2.53;;;13.50;99.90;;;;;;20915815;28;20318;-82
2022/07/10 03:04:47;;;;;;;6.93;2.57;;;13.70;99.90;;;;;;20915234;28;20279;-83
2022/07/10 03:14:47;;;;;;;5.87;3.07;;;13.40;99.90;;;;;;20896534;28;20086;-83
2022/07/10 03:24:48;;;;;;;4.10;2.93;;;13.40;99.90;;;;;;20913882;28;20051;-81
2022/07/10 03:34:49;;;;;;;5.60;2.70;;;13.40;99.90;;;;;;20913648;28;20037;-81
2022/07/10 03:44:50;;;;;;;4.70;3.00;;;13.40;99.90;;;;;;20913888;28;20036;-83
2022/07/10 03:54:53;;;;;;;3.40;2.77;;;13.40;99.90;;;;;;20896153;28;20115;-81
2022/07/10 04:04:54;;;;;;;9.27;3.45;;;13.50;99.90;;;;;;20911948;28;20032;-81
2022/07/10 04:14:56;;;;;;;5.43;3.67;;;13.80;99.90;;;;;;20911866;28;20036;-84
2022/07/10 04:24:56;;;;;;;4.30;3.37;;;14.10;99.90;;;;;;20911061;28;20271;-83
2022/07/10 04:34:58;;;;;;;5.43;3.33;;;14.00;99.90;;;;;;20910486;28;20079;-83
2022/07/10 04:44:59;;;;;;;3.75;2.83;;;14.10;99.90;;;;;;20926434;28;20518;-83
2022/07/10 04:55:00;;;;;;;3.43;2.90;;;14.30;99.90;;;;;;20908804;28;20395;-81
2022/07/10 05:05:02;;;;;;;5.70;3.35;;;14.40;99.90;;;;;;20907557;28;20025;-83
2022/07/10 05:15:03;;;;;;;4.72;3.38;;;14.60;99.90;;;;;;20925715;28;20056;-83
2022/07/10 05:25:04;;;;;;;5.43;3.03;;;14.80;99.90;;;;;;20923910;28;20063;-82
2022/07/10 05:35:05;;;;;;;5.53;3.67;;;15.10;99.90;;;;;;20906223;28;20033;-81
2022/07/10 05:45:07;;;;;;;7.68;3.85;;;15.40;99.90;;;;;;20907596;28;20033;-83
2022/07/10 05:55:08;;;;;;;6.65;3.72;;;15.70;99.90;;;;;;20906049;22;20042;-74
2022/07/10 06:05:09;;;;;;;5.00;3.50;;;16.00;99.90;;;;;;20833640;28;20033;-74
2022/07/10 06:15:10;;;;;;;6.37;4.03;;;16.80;99.90;;;;;;20832969;28;20034;-74
2022/07/10 06:25:11;;;;;;;8.57;4.88;;;16.90;99.90;;;;;;20832095;28;20029;-74
2022/07/10 06:35:12;;;;;;;6.43;4.30;;;16.70;99.90;;;;;;20829969;28;20043;-75
2022/07/10 06:45:13;;;;;;;7.10;4.80;;;17.60;99.90;;;;;;20838647;28;20068;-75
2022/07/10 06:55:14;;;;;;;6.77;4.60;;;17.40;99.90;;;;;;20835551;28;20508;-74
2022/07/10 07:05:15;;;;;;;13.05;6.35;;;18.70;99.90;;;;;;20835367;28;20390;-74
2022/07/10 07:15:17;;;;;;;6.93;4.80;;;19.20;99.90;;;;;;20821520;28;20037;-74
2022/07/10 07:25:18;;;;;;;5.95;4.20;;;19.30;99.90;;;;;;20796041;28;20060;-76
2022/07/10 07:35:19;;;;;;;4.90;3.97;;;19.50;99.90;;;;;;20806767;28;20022;-75
2022/07/10 07:45:20;;;;;;;5.73;3.10;;;19.70;99.90;;;;;;20805405;28;20087;-76
2022/07/10 07:55:22;;;;;;;6.47;2.60;;;21.00;99.90;;;;;;20805892;28;20797;-76
2022/07/10 08:05:24;;;;;;;6.07;2.28;;;21.70;99.90;;;;;;20806165;28;20041;-76
2022/07/10 08:15:25;;;;;;;5.05;2.20;;;22.60;99.90;;;;;;20816080;28;20033;-76
2022/07/10 08:25:32;;;;;;;7.28;2.50;;;23.00;99.90;;;;;;20821181;28;20099;-76
2022/07/10 08:35:33;;;;;;;2.42;1.77;;;23.10;99.90;;;;;;20822250;28;20038;-76
2022/07/10 08:45:34;;;;;;;5.50;2.17;;;23.30;99.90;;;;;;20821895;28;20485;-76
2022/07/10 08:55:36;;;;;;;2.38;1.73;;;24.30;99.90;;;;;;20819993;28;20025;-74
2022/07/10 09:05:37;;;;;;;4.22;2.20;;;24.70;99.90;;;;;;20820992;28;20063;-74
2022/07/10 09:15:38;;;;;;;;;;;24.90;99.90;;;;;;20820147;28;20033;-75
2022/07/10 09:25:39;;;;;;;5.43;2.40;;;24.50;99.90;;;;;;20825870;28;20317;-74
2022/07/10 09:36:06;;;;;;;5.93;3.25;;;24.50;99.90;;;;;;20824678;28;20327;-74
2022/07/10 09:46:08;;;;;;;4.53;2.45;;;23.60;99.90;;;;;;20822809;28;20029;-78
2022/07/10 09:56:11;;;;;;;5.82;2.90;;;24.90;99.90;;;;;;20824662;28;21142;-80
2022/07/10 10:06:16;;;;;;;5.45;3.30;;;23.90;99.90;;;;;;20824324;28;20033;-78
2022/07/10 10:16:20;;;;;;;5.95;2.53;;;24.20;99.90;;;;;;20820029;28;20076;-78
2022/07/10 10:26:24;;;;;;;5.07;3.25;;;24.70;99.90;;;;;;20836834;28;20034;-77
2022/07/10 10:36:41;;;;;;;4.68;2.53;;;24.60;99.90;;;;;;20823751;28;20037;-77
2022/07/10 10:46:54;;;;;;;2.60;2.17;;;24.90;99.90;;;;;;20822121;28;20509;-78
2022/07/10 10:57:17;;;;;;;4.65;2.53;;;24.70;99.90;;;;;;20816728;28;20064;-78
2022/07/10 11:07:53;;;;;;;5.03;2.40;;;24.40;99.90;;;;;;20819770;28;20065;-78
2022/07/10 11:17:55;;;;;;;4.25;2.20;;;24.60;99.90;;;;;;20830045;28;20029;-77
2022/07/10 11:28:09;;;;;;;3.38;2.22;;;25.50;99.90;;;;;;20823090;28;20115;-77
2022/07/10 11:38:10;;;;;;;2.72;1.88;;;26.30;99.90;;;;;;20822270;28;20486;-78
2022/07/10 11:48:17;;;;;;;;;;;25.90;99.90;;;;;;20826086;28;20047;-79
2022/07/10 11:58:19;;;;;;;5.07;2.25;;;25.00;99.90;;;;;;20855904;23;20590;-75
2022/07/10 12:08:20;;;;;;;3.33;1.77;;;25.40;99.90;;;;;;20832330;28;20033;-75
2022/07/10 12:18:21;;;;;;;;;;;26.50;99.90;;;;;;20803317;28;20467;-75
2022/07/10 12:28:22;;;;;;;1.83;1.55;;;25.70;99.90;;;;;;20804360;28;19913;-76
2022/07/10 12:38:27;;;;;;;2.10;1.52;;;25.50;99.90;;;;;;20804961;28;20053;-76
2022/07/10 12:48:28;;;;;;;2.15;1.85;;;26.20;99.90;;;;;;20803219;28;20672;-76
2022/07/10 12:58:28;;;;;;;;;;;25.70;99.90;;;;;;20808140;28;20115;-75
2022/07/10 13:08:45;;;;;;;3.27;1.33;;;26.50;99.90;;;;;;20817620;28;19967;-75
2022/07/10 13:18:46;;;;;;;1.33;1.10;;;26.30;99.90;;;;;;20817234;28;20040;-75
2022/07/10 13:28:46;;;;;;;;;;;26.30;99.90;;;;;;20818081;28;20026;-76
2022/07/10 13:38:49;;;;;;;7.80;1.50;;;26.20;99.90;;;;;;20831858;28;19940;-77
2022/07/10 13:48:50;;;;;;;1.98;1.20;;;25.50;99.90;;;;;;20823798;28;20037;-77
2022/07/10 13:58:51;;;;;;;;;;;25.00;99.90;;;;;;20819651;28;20041;-75
2022/07/10 14:08:52;;;;;;;9.38;2.25;;;25.60;99.90;;;;;;20833024;28;19916;-77
2022/07/10 14:18:54;;;;;;;;;;;25.60;99.90;;;;;;20797712;28;20109;-77
2022/07/10 14:28:55;;;;;;;4.17;1.13;;;25.30;99.90;;;;;;20821498;28;19942;-75
2022/07/10 14:38:56;;;;;;;;;;;25.10;99.90;;;;;;20854806;28;20051;-74
2022/07/10 14:48:56;;;;;;;2.47;1.00;;;25.90;99.90;;;;;;20831760;28;20482;-76
2022/07/10 14:58:57;;;;;;;;;;;26.10;99.90;;;;;;20816452;28;20116;-76
2022/07/10 15:08:58;;;;;;;2.17;1.00;;;27.20;99.90;;;;;;20797090;28;19913;-77
2022/07/10 15:18:59;;;;;;;1.92;0.93;;;27.10;99.90;;;;;;20783855;28;20121;-77
2022/07/10 15:29:01;;;;;;;2.20;0.90;;;26.90;99.90;;;;;;20782671;28;20069;-75
2022/07/10 15:39:02;;;;;;;1.63;0.90;;;26.30;99.90;;;;;;20833240;28;20067;-76
2022/07/10 15:49:04;;;;;;;4.00;0.80;;;26.50;99.90;;;;;;20826503;28;20025;-76
2022/07/10 15:59:05;;;;;;;1.83;1.00;;;26.50;99.90;;;;;;20825335;28;20033;-75
2022/07/10 16:09:05;;;;;;;1.42;0.82;;;26.40;99.90;;;;;;20825185;28;20119;-75
2022/07/10 16:19:07;;;;;;;0.90;0.55;;;25.90;99.90;;;;;;20824543;28;20030;-76
2022/07/10 16:29:08;;;;;;;1.30;0.60;;;26.00;99.90;;;;;;20825278;28;20108;-75
2022/07/10 16:39:08;;;;;;;;;;;25.60;98.80;;;;;;20843566;28;20536;-75
2022/07/10 16:49:09;;;;;;;1.43;0.50;;;25.30;97.50;;;;;;20837831;28;19909;-75
2022/07/10 16:59:10;;;;;;;0.80;0.60;;;25.50;96.40;;;;;;20840918;28;20037;-75
2022/07/10 17:09:11;;;;;;;;;;;25.40;98.90;;;;;;20838826;28;20108;-75
2022/07/10 17:19:11;;;;;;;1.48;0.80;;;25.10;97.30;;;;;;20837634;28;19913;-75
2022/07/10 17:29:12;;;;;;;;;;;24.80;99.00;;;;;;20842997;28;20393;-75
2022/07/10 17:39:13;;;;;;;4.13;3.30;;;24.70;97.60;;;;;;20835939;28;19920;-75
2022/07/10 17:49:14;;;;;;;2.35;1.40;;;24.40;98.30;;;;;;20833844;28;20405;-76
2022/07/10 17:59:15;;;;;;;1.80;1.00;;;24.70;98.40;;;;;;20868675;23;20049;-77
2022/07/10 18:09:16;;;;;;;;;;;25.20;98.10;;;;;;20836260;28;20029;-76
2022/07/10 18:19:16;;;;;;;124.53;85.30;;;26.40;97.60;;;;;;20833845;28;19920;-77
2022/07/10 18:29:17;;;;;;;11.00;7.55;;;28.50;97.10;;;;;;20834883;28;20052;-77
2022/07/10 18:39:19;;;;;;;1.42;0.90;;;27.00;99.90;;;;;;20833229;28;20034;-77
2022/07/10 18:49:21;;;;;;;;;;;24.30;99.90;;;;;;20843137;28;20478;-76
2022/07/10 18:59:22;;;;;;;0.95;0.75;;;23.00;99.90;;;;;;20834314;28;20301;-76
2022/07/10 19:09:23;;;;;;;;;;;22.00;99.90;;;;;;20835119;28;20101;-76
2022/07/10 19:19:24;;;;;;;2.73;0.70;;;21.50;99.90;;;;;;20831977;28;19956;-77
2022/07/10 19:29:25;;;;;;;5.77;0.80;;;21.00;99.90;;;;;;20827493;28;20641;-77
2022/07/10 19:39:26;;;;;;;3.57;0.80;;;20.60;99.90;;;;;;20810038;28;20045;-76
2022/07/10 19:49:27;;;;;;;2.10;0.70;;;20.30;99.90;;;;;;20812753;28;20037;-77
2022/07/10 19:59:28;;;;;;;1.77;0.80;;;20.10;99.90;;;;;;20811220;28;20144;-77
2022/07/10 20:09:29;;;;;;;2.07;0.60;;;19.70;99.90;;;;;;20806911;28;20041;-76
2022/07/10 20:19:30;;;;;;;2.67;0.63;;;19.40;99.90;;;;;;20804697;28;20037;-76
2022/07/10 20:29:31;;;;;;;4.63;0.70;;;19.10;99.90;;;;;;20797363;28;20034;-76
2022/07/10 20:39:32;;;;;;;1.17;0.60;;;18.80;99.90;;;;;;20826993;28;20171;-77
2022/07/10 20:49:33;;;;;;;2.73;1.40;;;18.60;99.90;;;;;;20819541;28;20037;-77
2022/07/10 20:59:34;;;;;;;2.73;1.00;;;18.30;99.90;;;;;;20819076;28;20039;-76
2022/07/10 21:09:35;;;;;;;2.20;0.80;;;18.10;99.90;;;;;;20821904;28;20056;-76
2022/07/10 21:19:35;;;;;;;2.00;0.80;;;18.00;99.90;;;;;;20823617;28;20033;-75
2022/07/10 21:29:36;;;;;;;5.23;0.80;;;17.80;99.90;;;;;;20836793;28;20512;-76
2022/07/10 21:39:37;;;;;;;1.30;1.00;;;17.60;99.90;;;;;;20835956;28;20083;-76
2022/07/10 21:49:38;;;;;;;4.10;1.20;;;17.30;99.90;;;;;;20835466;28;20132;-76
2022/07/10 21:59:41;;;;;;;4.72;0.77;;;17.00;99.90;;;;;;20834691;28;20069;-76
2022/07/10 22:09:42;;;;;;;2.95;1.10;;;16.90;99.90;;;;;;20833657;28;20040;-76
2022/07/10 22:19:43;;;;;;;1.83;1.10;;;16.70;99.90;;;;;;20831793;28;20120;-75
2022/07/10 22:29:44;;;;;;;1.57;0.97;;;16.60;99.90;;;;;;20834516;28;20087;-76
2022/07/10 22:39:45;;;;;;;3.15;0.93;;;16.40;99.90;;;;;;20837550;28;20537;-76
2022/07/10 22:49:46;;;;;;;3.47;1.10;;;16.30;99.90;;;;;;20830679;28;20029;-76
2022/07/10 22:59:47;;;;;;;2.93;1.10;;;16.30;99.90;;;;;;20829767;28;20142;-76
2022/07/10 23:09:47;;;;;;;3.03;1.20;;;16.00;99.90;;;;;;20831070;28;20486;-76
2022/07/10 23:19:48;;;;;;;4.30;1.00;;;15.70;99.90;;;;;;20829023;28;20509;-75
2022/07/10 23:29:49;;;;;;;2.70;1.30;;;15.70;99.90;;;;;;20828298;28;20125;-76
2022/07/10 23:39:50;;;;;;;3.80;1.10;;;15.70;99.90;;;;;;20827075;28;20067;-76
2022/07/10 23:50:10;;;;;;;2.53;1.13;;;15.40;99.90;;;;;;20825422;28;20072;-76
